Terminal Aerodrome Forecast
Issued by NWS

Home | Current Version | Previous Version | Text Only | Print | Product List | Glossary On
Versions: 1 2 3 4 5 6 7 8 9 10 11 12 13 14 15 16 17 18 19
000
FTUS42 KGSP 311800 CCA
TAFAND
TAF COR
KAND 311841Z 3118/0118 04007KT P6SM FEW006 OVC050
      TEMPO 3119/3122 6SM -TSRA SCT006 OVC045CB
     FM312200 05006KT P6SM -SHRA OVC050
     FM010400 05009KT P6SM OVC018
     FM010800 04006KT 4SM -SHRA BR OVC009
     FM011400 07006KT P6SM -SHRA OVC019=

USA.gov is the U.S. government's official web portal to all federal, state and local government web resources and services.